sensor_id;sensor_type;location;lat;lon;timestamp;P1;durP1;ratioP1;P2;durP2;ratioP2
25479;SDS011;13393;49.378;8.686;2023-12-04T00:00:05;18.85;;;11.55;;
25479;SDS011;13393;49.378;8.686;2023-12-04T00:02:32;17.38;;;11.73;;
25479;SDS011;13393;49.378;8.686;2023-12-04T00:04:59;19.15;;;11.90;;
25479;SDS011;13393;49.378;8.686;2023-12-04T00:07:25;17.65;;;11.40;;
25479;SDS011;13393;49.378;8.686;2023-12-04T00:09:52;18.65;;;11.38;;
25479;SDS011;13393;49.378;8.686;2023-12-04T00:12:22;19.88;;;11.32;;
25479;SDS011;13393;49.378;8.686;2023-12-04T00:14:48;18.48;;;11.80;;
25479;SDS011;13393;49.378;8.686;2023-12-04T00:17:15;17.05;;;11.45;;
25479;SDS011;13393;49.378;8.686;2023-12-04T00:19:41;16.25;;;10.65;;
25479;SDS011;13393;49.378;8.686;2023-12-04T00:22:09;15.52;;;11.05;;
25479;SDS011;13393;49.378;8.686;2023-12-04T00:24:36;17.98;;;11.35;;
25479;SDS011;13393;49.378;8.686;2023-12-04T00:27:02;17.02;;;10.80;;
25479;SDS011;13393;49.378;8.686;2023-12-04T00:29:31;16.35;;;11.13;;
25479;SDS011;13393;49.378;8.686;2023-12-04T00:31:57;19.27;;;11.77;;
25479;SDS011;13393;49.378;8.686;2023-12-04T00:34:25;19.95;;;11.98;;
25479;SDS011;13393;49.378;8.686;2023-12-04T00:36:51;16.27;;;11.00;;
25479;SDS011;13393;49.378;8.686;2023-12-04T00:39:18;16.40;;;11.00;;
25479;SDS011;13393;49.378;8.686;2023-12-04T00:41:44;17.73;;;9.65;;
25479;SDS011;13393;49.378;8.686;2023-12-04T00:44:11;15.27;;;10.07;;
25479;SDS011;13393;49.378;8.686;2023-12-04T00:46:39;16.00;;;10.93;;
25479;SDS011;13393;49.378;8.686;2023-12-04T00:49:06;16.42;;;10.25;;
25479;SDS011;13393;49.378;8.686;2023-12-04T00:51:36;15.18;;;9.88;;
25479;SDS011;13393;49.378;8.686;2023-12-04T00:54:03;16.27;;;10.52;;
25479;SDS011;13393;49.378;8.686;2023-12-04T00:56:29;13.32;;;9.60;;
25479;SDS011;13393;49.378;8.686;2023-12-04T00:58:56;16.42;;;10.32;;
25479;SDS011;13393;49.378;8.686;2023-12-04T01:01:22;14.85;;;9.65;;
25479;SDS011;13393;49.378;8.686;2023-12-04T01:03:50;14.50;;;9.68;;
25479;SDS011;13393;49.378;8.686;2023-12-04T01:06:20;14.98;;;10.18;;
25479;SDS011;13393;49.378;8.686;2023-12-04T01:08:47;13.95;;;9.40;;
25479;SDS011;13393;49.378;8.686;2023-12-04T01:11:14;16.48;;;10.27;;
25479;SDS011;13393;49.378;8.686;2023-12-04T01:13:41;15.38;;;9.85;;
25479;SDS011;13393;49.378;8.686;2023-12-04T01:16:08;17.02;;;10.52;;
25479;SDS011;13393;49.378;8.686;2023-12-04T01:18:35;13.88;;;9.10;;
25479;SDS011;13393;49.378;8.686;2023-12-04T01:21:03;13.10;;;8.88;;
25479;SDS011;13393;49.378;8.686;2023-12-04T01:23:30;14.13;;;9.60;;
25479;SDS011;13393;49.378;8.686;2023-12-04T01:25:57;15.02;;;9.43;;
25479;SDS011;13393;49.378;8.686;2023-12-04T01:28:24;14.63;;;9.60;;
25479;SDS011;13393;49.378;8.686;2023-12-04T01:30:51;16.00;;;9.70;;
25479;SDS011;13393;49.378;8.686;2023-12-04T01:33:17;16.13;;;9.98;;
25479;SDS011;13393;49.378;8.686;2023-12-04T01:35:44;14.20;;;9.20;;
25479;SDS011;13393;49.378;8.686;2023-12-04T01:38:12;15.10;;;9.02;;
25479;SDS011;13393;49.378;8.686;2023-12-04T01:40:38;14.57;;;9.85;;
25479;SDS011;13393;49.378;8.686;2023-12-04T01:43:06;16.35;;;9.75;;
25479;SDS011;13393;49.378;8.686;2023-12-04T01:45:32;13.52;;;9.27;;
25479;SDS011;13393;49.378;8.686;2023-12-04T01:47:59;14.57;;;10.32;;
25479;SDS011;13393;49.378;8.686;2023-12-04T01:50:25;16.27;;;9.45;;
25479;SDS011;13393;49.378;8.686;2023-12-04T01:52:52;18.00;;;9.75;;
25479;SDS011;13393;49.378;8.686;2023-12-04T01:55:21;13.40;;;9.30;;
25479;SDS011;13393;49.378;8.686;2023-12-04T01:57:48;15.50;;;10.45;;
25479;SDS011;13393;49.378;8.686;2023-12-04T02:00:14;12.43;;;9.23;;
25479;SDS011;13393;49.378;8.686;2023-12-04T02:02:41;13.23;;;8.95;;
25479;SDS011;13393;49.378;8.686;2023-12-04T02:05:08;14.05;;;8.93;;
25479;SDS011;13393;49.378;8.686;2023-12-04T02:07:34;13.73;;;8.85;;
25479;SDS011;13393;49.378;8.686;2023-12-04T02:10:02;15.20;;;9.48;;
25479;SDS011;13393;49.378;8.686;2023-12-04T02:12:30;14.30;;;9.30;;
25479;SDS011;13393;49.378;8.686;2023-12-04T02:14:56;13.70;;;9.10;;
25479;SDS011;13393;49.378;8.686;2023-12-04T02:17:23;13.48;;;9.35;;
25479;SDS011;13393;49.378;8.686;2023-12-04T02:19:50;12.68;;;8.77;;
25479;SDS011;13393;49.378;8.686;2023-12-04T02:22:17;13.02;;;8.15;;
25479;SDS011;13393;49.378;8.686;2023-12-04T02:24:46;14.50;;;9.57;;
25479;SDS011;13393;49.378;8.686;2023-12-04T02:27:17;13.02;;;8.55;;
25479;SDS011;13393;49.378;8.686;2023-12-04T02:29:46;13.68;;;8.85;;
25479;SDS011;13393;49.378;8.686;2023-12-04T02:32:14;11.85;;;8.18;;
25479;SDS011;13393;49.378;8.686;2023-12-04T02:34:41;13.30;;;8.55;;
25479;SDS011;13393;49.378;8.686;2023-12-04T02:37:09;11.20;;;8.30;;
25479;SDS011;13393;49.378;8.686;2023-12-04T02:39:36;12.43;;;8.43;;
25479;SDS011;13393;49.378;8.686;2023-12-04T02:42:07;13.50;;;9.25;;
25479;SDS011;13393;49.378;8.686;2023-12-04T02:44:33;14.98;;;8.70;;
25479;SDS011;13393;49.378;8.686;2023-12-04T02:47:00;13.48;;;8.88;;
25479;SDS011;13393;49.378;8.686;2023-12-04T02:49:27;15.50;;;9.90;;
25479;SDS011;13393;49.378;8.686;2023-12-04T02:51:53;13.30;;;8.00;;
25479;SDS011;13393;49.378;8.686;2023-12-04T02:54:23;12.15;;;7.75;;
25479;SDS011;13393;49.378;8.686;2023-12-04T02:56:50;12.38;;;8.35;;
25479;SDS011;13393;49.378;8.686;2023-12-04T02:59:19;16.58;;;9.90;;
25479;SDS011;13393;49.378;8.686;2023-12-04T03:01:47;12.07;;;8.18;;
25479;SDS011;13393;49.378;8.686;2023-12-04T03:04:16;16.42;;;8.70;;
25479;SDS011;13393;49.378;8.686;2023-12-04T03:06:42;12.30;;;7.65;;
25479;SDS011;13393;49.378;8.686;2023-12-04T03:09:09;13.65;;;8.18;;
25479;SDS011;13393;49.378;8.686;2023-12-04T03:11:38;11.98;;;8.05;;
25479;SDS011;13393;49.378;8.686;2023-12-04T03:14:05;11.10;;;8.40;;
25479;SDS011;13393;49.378;8.686;2023-12-04T03:16:33;12.90;;;8.43;;
25479;SDS011;13393;49.378;8.686;2023-12-04T03:19:00;10.07;;;7.38;;
25479;SDS011;13393;49.378;8.686;2023-12-04T03:21:26;14.10;;;8.90;;
25479;SDS011;13393;49.378;8.686;2023-12-04T03:23:53;13.82;;;9.02;;
25479;SDS011;13393;49.378;8.686;2023-12-04T03:26:20;12.13;;;8.30;;
25479;SDS011;13393;49.378;8.686;2023-12-04T03:28:46;13.57;;;7.88;;
25479;SDS011;13393;49.378;8.686;2023-12-04T03:31:13;10.25;;;7.68;;
25479;SDS011;13393;49.378;8.686;2023-12-04T03:33:42;13.82;;;8.70;;
25479;SDS011;13393;49.378;8.686;2023-12-04T03:36:09;11.75;;;7.65;;
25479;SDS011;13393;49.378;8.686;2023-12-04T03:38:35;12.02;;;8.48;;
25479;SDS011;13393;49.378;8.686;2023-12-04T03:41:03;12.63;;;8.68;;
25479;SDS011;13393;49.378;8.686;2023-12-04T03:43:30;13.05;;;8.35;;
25479;SDS011;13393;49.378;8.686;2023-12-04T03:45:56;13.27;;;8.52;;
25479;SDS011;13393;49.378;8.686;2023-12-04T03:48:23;12.50;;;8.68;;
25479;SDS011;13393;49.378;8.686;2023-12-04T03:50:52;12.07;;;7.95;;
25479;SDS011;13393;49.378;8.686;2023-12-04T03:53:19;12.48;;;7.97;;
25479;SDS011;13393;49.378;8.686;2023-12-04T03:55:46;11.15;;;7.53;;
25479;SDS011;13393;49.378;8.686;2023-12-04T03:58:13;11.63;;;7.10;;
25479;SDS011;13393;49.378;8.686;2023-12-04T04:00:40;13.93;;;8.70;;
25479;SDS011;13393;49.378;8.686;2023-12-04T04:03:08;12.38;;;7.75;;
25479;SDS011;13393;49.378;8.686;2023-12-04T04:05:35;11.70;;;7.50;;
25479;SDS011;13393;49.378;8.686;2023-12-04T04:08:03;11.95;;;7.50;;
25479;SDS011;13393;49.378;8.686;2023-12-04T04:10:32;9.63;;;6.85;;
25479;SDS011;13393;49.378;8.686;2023-12-04T04:12:58;12.60;;;7.97;;
25479;SDS011;13393;49.378;8.686;2023-12-04T04:15:25;8.05;;;5.90;;
25479;SDS011;13393;49.378;8.686;2023-12-04T04:17:52;9.57;;;6.38;;
25479;SDS011;13393;49.378;8.686;2023-12-04T04:20:19;11.25;;;7.22;;
25479;SDS011;13393;49.378;8.686;2023-12-04T04:22:47;9.32;;;6.25;;
25479;SDS011;13393;49.378;8.686;2023-12-04T04:25:15;10.15;;;6.90;;
25479;SDS011;13393;49.378;8.686;2023-12-04T04:27:42;7.63;;;5.75;;
25479;SDS011;13393;49.378;8.686;2023-12-04T04:30:09;9.13;;;6.22;;
25479;SDS011;13393;49.378;8.686;2023-12-04T04:32:36;9.27;;;6.47;;
25479;SDS011;13393;49.378;8.686;2023-12-04T04:35:04;7.32;;;5.93;;
25479;SDS011;13393;49.378;8.686;2023-12-04T04:37:30;11.52;;;6.00;;
25479;SDS011;13393;49.378;8.686;2023-12-04T04:39:57;10.02;;;6.32;;
25479;SDS011;13393;49.378;8.686;2023-12-04T04:42:25;9.45;;;6.30;;
25479;SDS011;13393;49.378;8.686;2023-12-04T04:44:52;9.43;;;6.25;;
25479;SDS011;13393;49.378;8.686;2023-12-04T04:47:18;8.75;;;6.18;;
25479;SDS011;13393;49.378;8.686;2023-12-04T04:49:45;7.88;;;6.18;;
25479;SDS011;13393;49.378;8.686;2023-12-04T04:52:12;8.95;;;6.60;;
25479;SDS011;13393;49.378;8.686;2023-12-04T04:54:39;10.10;;;6.55;;
25479;SDS011;13393;49.378;8.686;2023-12-04T04:57:05;9.23;;;6.32;;
25479;SDS011;13393;49.378;8.686;2023-12-04T04:59:36;8.32;;;6.10;;
25479;SDS011;13393;49.378;8.686;2023-12-04T05:02:01;10.35;;;6.70;;
25479;SDS011;13393;49.378;8.686;2023-12-04T05:04:28;8.45;;;6.07;;
25479;SDS011;13393;49.378;8.686;2023-12-04T05:06:54;8.52;;;6.05;;
25479;SDS011;13393;49.378;8.686;2023-12-04T05:09:21;10.02;;;5.70;;
25479;SDS011;13393;49.378;8.686;2023-12-04T05:11:47;8.48;;;6.07;;
25479;SDS011;13393;49.378;8.686;2023-12-04T05:14:14;8.80;;;5.78;;
25479;SDS011;13393;49.378;8.686;2023-12-04T05:16:42;10.55;;;6.18;;
25479;SDS011;13393;49.378;8.686;2023-12-04T05:19:09;7.97;;;5.43;;
25479;SDS011;13393;49.378;8.686;2023-12-04T05:21:35;8.15;;;5.30;;
25479;SDS011;13393;49.378;8.686;2023-12-04T05:24:02;10.57;;;6.25;;
25479;SDS011;13393;49.378;8.686;2023-12-04T05:26:28;8.50;;;6.07;;
25479;SDS011;13393;49.378;8.686;2023-12-04T05:28:55;8.00;;;5.78;;
25479;SDS011;13393;49.378;8.686;2023-12-04T05:31:22;8.88;;;5.78;;
25479;SDS011;13393;49.378;8.686;2023-12-04T05:33:49;7.18;;;5.30;;
25479;SDS011;13393;49.378;8.686;2023-12-04T05:36:16;6.68;;;5.10;;
25479;SDS011;13393;49.378;8.686;2023-12-04T05:38:42;9.07;;;5.88;;
25479;SDS011;13393;49.378;8.686;2023-12-04T05:41:09;7.85;;;5.63;;
25479;SDS011;13393;49.378;8.686;2023-12-04T05:43:36;7.03;;;4.80;;
25479;SDS011;13393;49.378;8.686;2023-12-04T05:46:03;7.68;;;5.22;;
25479;SDS011;13393;49.378;8.686;2023-12-04T05:48:30;8.55;;;5.38;;
25479;SDS011;13393;49.378;8.686;2023-12-04T05:50:58;7.05;;;5.55;;
25479;SDS011;13393;49.378;8.686;2023-12-04T05:53:23;8.82;;;5.43;;
25479;SDS011;13393;49.378;8.686;2023-12-04T05:55:50;8.07;;;5.63;;
25479;SDS011;13393;49.378;8.686;2023-12-04T05:58:16;10.27;;;5.55;;
25479;SDS011;13393;49.378;8.686;2023-12-04T06:00:43;7.57;;;5.80;;
25479;SDS011;13393;49.378;8.686;2023-12-04T06:03:10;7.55;;;5.03;;
25479;SDS011;13393;49.378;8.686;2023-12-04T06:05:36;9.07;;;5.55;;
25479;SDS011;13393;49.378;8.686;2023-12-04T06:08:05;11.45;;;6.22;;
25479;SDS011;13393;49.378;8.686;2023-12-04T06:10:31;10.13;;;7.22;;
25479;SDS011;13393;49.378;8.686;2023-12-04T06:13:01;9.98;;;6.85;;
25479;SDS011;13393;49.378;8.686;2023-12-04T06:15:28;12.52;;;7.28;;
25479;SDS011;13393;49.378;8.686;2023-12-04T06:17:54;10.15;;;7.05;;
25479;SDS011;13393;49.378;8.686;2023-12-04T06:20:21;9.75;;;7.35;;
25479;SDS011;13393;49.378;8.686;2023-12-04T06:22:47;11.25;;;7.45;;
25479;SDS011;13393;49.378;8.686;2023-12-04T06:25:17;10.65;;;6.95;;
25479;SDS011;13393;49.378;8.686;2023-12-04T06:27:44;10.48;;;6.97;;
25479;SDS011;13393;49.378;8.686;2023-12-04T06:30:11;9.57;;;6.68;;
25479;SDS011;13393;49.378;8.686;2023-12-04T06:32:38;7.38;;;5.60;;
25479;SDS011;13393;49.378;8.686;2023-12-04T06:35:05;11.85;;;6.20;;
25479;SDS011;13393;49.378;8.686;2023-12-04T06:37:32;7.85;;;5.88;;
25479;SDS011;13393;49.378;8.686;2023-12-04T06:39:58;7.72;;;5.78;;
25479;SDS011;13393;49.378;8.686;2023-12-04T06:42:29;9.18;;;6.18;;
25479;SDS011;13393;49.378;8.686;2023-12-04T06:44:55;8.88;;;6.05;;
25479;SDS011;13393;49.378;8.686;2023-12-04T06:47:22;10.55;;;5.93;;
25479;SDS011;13393;49.378;8.686;2023-12-04T06:49:50;9.35;;;5.50;;
25479;SDS011;13393;49.378;8.686;2023-12-04T06:52:17;8.13;;;5.57;;
25479;SDS011;13393;49.378;8.686;2023-12-04T06:54:43;8.00;;;5.88;;
25479;SDS011;13393;49.378;8.686;2023-12-04T06:57:10;7.93;;;5.65;;
25479;SDS011;13393;49.378;8.686;2023-12-04T06:59:39;7.78;;;4.97;;
25479;SDS011;13393;49.378;8.686;2023-12-04T07:02:06;10.07;;;6.22;;
25479;SDS011;13393;49.378;8.686;2023-12-04T07:04:32;8.13;;;5.70;;
25479;SDS011;13393;49.378;8.686;2023-12-04T07:06:59;10.40;;;5.45;;
25479;SDS011;13393;49.378;8.686;2023-12-04T07:09:30;7.65;;;5.70;;
25479;SDS011;13393;49.378;8.686;2023-12-04T07:11:56;8.70;;;5.88;;
25479;SDS011;13393;49.378;8.686;2023-12-04T07:14:23;9.50;;;6.18;;
25479;SDS011;13393;49.378;8.686;2023-12-04T07:16:51;7.70;;;5.85;;
25479;SDS011;13393;49.378;8.686;2023-12-04T07:19:17;7.68;;;5.40;;
25479;SDS011;13393;49.378;8.686;2023-12-04T07:21:45;8.40;;;5.95;;
25479;SDS011;13393;49.378;8.686;2023-12-04T07:24:11;7.72;;;5.80;;
25479;SDS011;13393;49.378;8.686;2023-12-04T07:26:38;10.77;;;6.07;;
25479;SDS011;13393;49.378;8.686;2023-12-04T07:29:05;7.13;;;5.18;;
25479;SDS011;13393;49.378;8.686;2023-12-04T07:31:31;9.52;;;6.03;;
25479;SDS011;13393;49.378;8.686;2023-12-04T07:33:59;7.75;;;5.43;;
25479;SDS011;13393;49.378;8.686;2023-12-04T07:36:27;7.70;;;5.35;;
25479;SDS011;13393;49.378;8.686;2023-12-04T07:38:53;6.47;;;5.18;;
25479;SDS011;13393;49.378;8.686;2023-12-04T07:41:20;7.95;;;5.50;;
25479;SDS011;13393;49.378;8.686;2023-12-04T07:43:47;8.20;;;5.57;;
25479;SDS011;13393;49.378;8.686;2023-12-04T07:46:15;7.43;;;5.53;;
25479;SDS011;13393;49.378;8.686;2023-12-04T07:48:41;7.72;;;4.88;;
25479;SDS011;13393;49.378;8.686;2023-12-04T07:51:10;5.90;;;4.90;;
25479;SDS011;13393;49.378;8.686;2023-12-04T07:53:37;9.70;;;5.47;;
25479;SDS011;13393;49.378;8.686;2023-12-04T07:56:04;6.90;;;5.07;;
25479;SDS011;13393;49.378;8.686;2023-12-04T07:58:31;7.70;;;4.80;;
25479;SDS011;13393;49.378;8.686;2023-12-04T08:00:57;6.28;;;4.32;;
25479;SDS011;13393;49.378;8.686;2023-12-04T08:03:24;6.47;;;4.35;;
25479;SDS011;13393;49.378;8.686;2023-12-04T08:05:50;5.95;;;4.65;;
25479;SDS011;13393;49.378;8.686;2023-12-04T08:08:18;6.30;;;4.63;;
25479;SDS011;13393;49.378;8.686;2023-12-04T08:10:45;6.30;;;4.70;;
25479;SDS011;13393;49.378;8.686;2023-12-04T08:13:12;7.20;;;5.50;;
25479;SDS011;13393;49.378;8.686;2023-12-04T08:15:39;7.82;;;4.80;;
25479;SDS011;13393;49.378;8.686;2023-12-04T08:18:05;6.78;;;4.55;;
25479;SDS011;13393;49.378;8.686;2023-12-04T08:20:32;7.80;;;4.85;;
25479;SDS011;13393;49.378;8.686;2023-12-04T08:22:59;7.18;;;4.88;;
25479;SDS011;13393;49.378;8.686;2023-12-04T08:25:27;6.25;;;4.75;;
25479;SDS011;13393;49.378;8.686;2023-12-04T08:27:54;6.07;;;4.80;;
25479;SDS011;13393;49.378;8.686;2023-12-04T08:30:21;6.70;;;4.85;;
25479;SDS011;13393;49.378;8.686;2023-12-04T08:32:48;11.25;;;4.95;;
25479;SDS011;13393;49.378;8.686;2023-12-04T08:35:14;5.97;;;4.63;;
25479;SDS011;13393;49.378;8.686;2023-12-04T08:37:42;6.35;;;5.03;;
25479;SDS011;13393;49.378;8.686;2023-12-04T08:40:09;6.38;;;4.85;;
25479;SDS011;13393;49.378;8.686;2023-12-04T08:42:38;6.20;;;4.75;;
25479;SDS011;13393;49.378;8.686;2023-12-04T08:45:05;6.25;;;4.63;;
25479;SDS011;13393;49.378;8.686;2023-12-04T08:47:33;7.32;;;5.20;;
25479;SDS011;13393;49.378;8.686;2023-12-04T08:50:01;8.32;;;5.35;;
25479;SDS011;13393;49.378;8.686;2023-12-04T08:52:28;7.22;;;5.07;;
25479;SDS011;13393;49.378;8.686;2023-12-04T08:54:54;7.10;;;5.25;;
25479;SDS011;13393;49.378;8.686;2023-12-04T08:57:21;6.20;;;4.82;;
25479;SDS011;13393;49.378;8.686;2023-12-04T08:59:50;7.43;;;5.07;;
25479;SDS011;13393;49.378;8.686;2023-12-04T09:02:17;7.53;;;4.88;;
25479;SDS011;13393;49.378;8.686;2023-12-04T09:04:43;6.82;;;5.07;;
25479;SDS011;13393;49.378;8.686;2023-12-04T09:07:10;7.35;;;5.20;;
25479;SDS011;13393;49.378;8.686;2023-12-04T09:09:37;8.02;;;5.70;;
25479;SDS011;13393;49.378;8.686;2023-12-04T09:12:03;7.22;;;5.13;;
25479;SDS011;13393;49.378;8.686;2023-12-04T09:14:30;6.93;;;5.13;;
25479;SDS011;13393;49.378;8.686;2023-12-04T09:16:58;8.13;;;4.93;;
25479;SDS011;13393;49.378;8.686;2023-12-04T09:19:25;6.18;;;4.50;;
25479;SDS011;13393;49.378;8.686;2023-12-04T09:21:51;6.47;;;4.78;;
25479;SDS011;13393;49.378;8.686;2023-12-04T09:24:18;9.60;;;4.93;;
25479;SDS011;13393;49.378;8.686;2023-12-04T09:26:44;7.13;;;4.95;;
25479;SDS011;13393;49.378;8.686;2023-12-04T09:29:11;7.47;;;5.38;;
25479;SDS011;13393;49.378;8.686;2023-12-04T09:31:39;6.90;;;5.10;;
25479;SDS011;13393;49.378;8.686;2023-12-04T09:34:07;8.48;;;5.10;;
25479;SDS011;13393;49.378;8.686;2023-12-04T09:36:35;6.38;;;4.68;;
25479;SDS011;13393;49.378;8.686;2023-12-04T09:39:01;7.47;;;5.07;;
25479;SDS011;13393;49.378;8.686;2023-12-04T09:41:29;6.05;;;4.40;;
25479;SDS011;13393;49.378;8.686;2023-12-04T09:43:56;5.78;;;4.72;;
25479;SDS011;13393;49.378;8.686;2023-12-04T09:46:23;7.80;;;5.20;;
25479;SDS011;13393;49.378;8.686;2023-12-04T09:48:49;6.53;;;4.80;;
25479;SDS011;13393;49.378;8.686;2023-12-04T09:51:19;6.72;;;5.13;;
25479;SDS011;13393;49.378;8.686;2023-12-04T09:53:47;7.75;;;5.00;;
25479;SDS011;13393;49.378;8.686;2023-12-04T09:56:14;7.53;;;5.07;;
25479;SDS011;13393;49.378;8.686;2023-12-04T09:58:41;7.25;;;4.80;;
25479;SDS011;13393;49.378;8.686;2023-12-04T10:01:09;7.00;;;5.18;;
25479;SDS011;13393;49.378;8.686;2023-12-04T10:03:36;7.90;;;4.95;;
25479;SDS011;13393;49.378;8.686;2023-12-04T10:06:03;9.32;;;5.20;;
25479;SDS011;13393;49.378;8.686;2023-12-04T10:08:32;7.30;;;5.05;;
25479;SDS011;13393;49.378;8.686;2023-12-04T10:10:59;11.43;;;5.30;;
25479;SDS011;13393;49.378;8.686;2023-12-04T10:13:26;8.27;;;5.13;;
25479;SDS011;13393;49.378;8.686;2023-12-04T10:15:52;7.70;;;5.28;;
25479;SDS011;13393;49.378;8.686;2023-12-04T10:18:28;6.47;;;4.72;;
25479;SDS011;13393;49.378;8.686;2023-12-04T10:20:55;6.68;;;5.03;;
25479;SDS011;13393;49.378;8.686;2023-12-04T10:23:22;7.13;;;4.85;;
25479;SDS011;13393;49.378;8.686;2023-12-04T10:25:50;7.32;;;4.50;;
25479;SDS011;13393;49.378;8.686;2023-12-04T10:28:17;8.57;;;5.55;;
25479;SDS011;13393;49.378;8.686;2023-12-04T10:30:44;10.50;;;5.68;;
25479;SDS011;13393;49.378;8.686;2023-12-04T10:33:11;7.22;;;5.30;;
25479;SDS011;13393;49.378;8.686;2023-12-04T10:35:39;8.52;;;5.53;;
25479;SDS011;13393;49.378;8.686;2023-12-04T10:38:06;9.27;;;6.07;;
25479;SDS011;13393;49.378;8.686;2023-12-04T10:40:33;7.13;;;5.85;;
25479;SDS011;13393;49.378;8.686;2023-12-04T10:43:17;8.77;;;6.25;;
25479;SDS011;13393;49.378;8.686;2023-12-04T10:45:45;7.97;;;5.80;;
25479;SDS011;13393;49.378;8.686;2023-12-04T10:48:13;7.30;;;5.70;;
25479;SDS011;13393;49.378;8.686;2023-12-04T10:50:41;6.63;;;4.85;;
25479;SDS011;13393;49.378;8.686;2023-12-04T10:53:09;8.73;;;5.65;;
25479;SDS011;13393;49.378;8.686;2023-12-04T10:55:38;8.23;;;5.45;;
25479;SDS011;13393;49.378;8.686;2023-12-04T10:58:05;7.82;;;5.80;;
25479;SDS011;13393;49.378;8.686;2023-12-04T11:00:34;7.88;;;6.05;;
25479;SDS011;13393;49.378;8.686;2023-12-04T11:03:02;8.23;;;5.95;;
25479;SDS011;13393;49.378;8.686;2023-12-04T11:05:29;8.20;;;5.03;;
25479;SDS011;13393;49.378;8.686;2023-12-04T11:07:58;8.52;;;6.07;;
25479;SDS011;13393;49.378;8.686;2023-12-04T11:10:26;8.75;;;5.97;;
25479;SDS011;13393;49.378;8.686;2023-12-04T11:12:56;8.93;;;6.00;;
25479;SDS011;13393;49.378;8.686;2023-12-04T11:15:23;10.40;;;6.63;;
25479;SDS011;13393;49.378;8.686;2023-12-04T11:17:53;9.65;;;6.18;;
25479;SDS011;13393;49.378;8.686;2023-12-04T11:20:22;8.73;;;6.45;;
25479;SDS011;13393;49.378;8.686;2023-12-04T11:22:50;8.57;;;6.60;;
25479;SDS011;13393;49.378;8.686;2023-12-04T11:25:17;10.07;;;7.05;;
25479;SDS011;13393;49.378;8.686;2023-12-04T11:27:44;9.30;;;7.03;;
25479;SDS011;13393;49.378;8.686;2023-12-04T11:30:12;12.25;;;7.50;;
25479;SDS011;13393;49.378;8.686;2023-12-04T11:32:45;9.75;;;7.45;;
25479;SDS011;13393;49.378;8.686;2023-12-04T11:35:14;10.20;;;7.57;;
25479;SDS011;13393;49.378;8.686;2023-12-04T11:37:42;9.15;;;6.97;;
25479;SDS011;13393;49.378;8.686;2023-12-04T11:40:10;10.88;;;7.57;;
25479;SDS011;13393;49.378;8.686;2023-12-04T11:42:38;10.25;;;7.65;;
25479;SDS011;13393;49.378;8.686;2023-12-04T11:45:05;9.02;;;6.75;;
25479;SDS011;13393;49.378;8.686;2023-12-04T11:47:43;9.43;;;7.22;;
25479;SDS011;13393;49.378;8.686;2023-12-04T11:50:16;12.38;;;7.57;;
25479;SDS011;13393;49.378;8.686;2023-12-04T11:52:42;10.63;;;7.25;;
25479;SDS011;13393;49.378;8.686;2023-12-04T11:55:09;12.18;;;7.65;;
25479;SDS011;13393;49.378;8.686;2023-12-04T11:57:36;10.55;;;7.20;;
25479;SDS011;13393;49.378;8.686;2023-12-04T12:03:03;12.20;;;7.45;;
25479;SDS011;13393;49.378;8.686;2023-12-04T12:05:33;11.00;;;8.23;;
25479;SDS011;13393;49.378;8.686;2023-12-04T12:08:08;12.02;;;8.30;;
25479;SDS011;13393;49.378;8.686;2023-12-04T12:10:35;10.73;;;7.80;;
25479;SDS011;13393;49.378;8.686;2023-12-04T12:13:01;12.02;;;8.68;;
25479;SDS011;13393;49.378;8.686;2023-12-04T12:15:28;11.98;;;9.20;;
25479;SDS011;13393;49.378;8.686;2023-12-04T12:17:54;13.48;;;9.50;;
25479;SDS011;13393;49.378;8.686;2023-12-04T12:20:21;12.75;;;8.90;;
25479;SDS011;13393;49.378;8.686;2023-12-04T12:22:49;17.17;;;10.50;;
25479;SDS011;13393;49.378;8.686;2023-12-04T12:25:15;12.57;;;8.75;;
25479;SDS011;13393;49.378;8.686;2023-12-04T12:27:43;11.23;;;8.75;;
25479;SDS011;13393;49.378;8.686;2023-12-04T12:30:09;12.98;;;9.02;;
25479;SDS011;13393;49.378;8.686;2023-12-04T12:32:36;11.77;;;8.15;;
25479;SDS011;13393;49.378;8.686;2023-12-04T12:35:05;15.13;;;9.00;;
25479;SDS011;13393;49.378;8.686;2023-12-04T12:37:33;15.57;;;9.20;;
25479;SDS011;13393;49.378;8.686;2023-12-04T12:40:03;14.25;;;8.93;;
25479;SDS011;13393;49.378;8.686;2023-12-04T12:42:30;16.40;;;10.15;;
25479;SDS011;13393;49.378;8.686;2023-12-04T12:45:00;12.93;;;9.10;;
25479;SDS011;13393;49.378;8.686;2023-12-04T12:47:27;12.02;;;8.63;;
25479;SDS011;13393;49.378;8.686;2023-12-04T12:49:55;12.43;;;8.27;;
25479;SDS011;13393;49.378;8.686;2023-12-04T12:52:21;13.25;;;9.02;;
25479;SDS011;13393;49.378;8.686;2023-12-04T12:54:48;15.68;;;9.95;;
25479;SDS011;13393;49.378;8.686;2023-12-04T12:57:16;13.73;;;9.15;;
25479;SDS011;13393;49.378;8.686;2023-12-04T12:59:43;13.52;;;8.60;;
25479;SDS011;13393;49.378;8.686;2023-12-04T13:02:10;15.52;;;10.02;;
25479;SDS011;13393;49.378;8.686;2023-12-04T13:04:36;14.80;;;9.50;;
25479;SDS011;13393;49.378;8.686;2023-12-04T13:07:03;17.50;;;10.35;;
25479;SDS011;13393;49.378;8.686;2023-12-04T13:09:31;12.13;;;8.70;;
25479;SDS011;13393;49.378;8.686;2023-12-04T13:11:57;14.02;;;9.48;;
25479;SDS011;13393;49.378;8.686;2023-12-04T13:14:26;21.42;;;13.93;;
25479;SDS011;13393;49.378;8.686;2023-12-04T13:16:52;13.07;;;8.82;;
25479;SDS011;13393;49.378;8.686;2023-12-04T13:19:21;14.45;;;9.25;;
25479;SDS011;13393;49.378;8.686;2023-12-04T13:21:47;13.85;;;8.82;;
25479;SDS011;13393;49.378;8.686;2023-12-04T13:24:15;11.60;;;8.50;;
25479;SDS011;13393;49.378;8.686;2023-12-04T13:26:42;17.00;;;8.95;;
25479;SDS011;13393;49.378;8.686;2023-12-04T13:29:09;10.75;;;6.30;;
25479;SDS011;13393;49.378;8.686;2023-12-04T13:31:37;12.40;;;7.88;;
25479;SDS011;13393;49.378;8.686;2023-12-04T13:34:03;9.93;;;6.60;;
25479;SDS011;13393;49.378;8.686;2023-12-04T13:36:31;10.85;;;7.07;;
25479;SDS011;13393;49.378;8.686;2023-12-04T13:38:58;11.13;;;7.50;;
25479;SDS011;13393;49.378;8.686;2023-12-04T13:41:24;10.23;;;6.97;;
25479;SDS011;13393;49.378;8.686;2023-12-04T13:44:10;9.60;;;7.50;;
25479;SDS011;13393;49.378;8.686;2023-12-04T13:46:41;10.13;;;7.72;;
25479;SDS011;13393;49.378;8.686;2023-12-04T13:49:07;13.60;;;8.63;;
25479;SDS011;13393;49.378;8.686;2023-12-04T13:51:33;11.10;;;7.45;;
25479;SDS011;13393;49.378;8.686;2023-12-04T13:54:05;13.13;;;8.93;;
25479;SDS011;13393;49.378;8.686;2023-12-04T13:56:40;10.85;;;7.88;;
25479;SDS011;13393;49.378;8.686;2023-12-04T13:59:16;19.40;;;12.77;;
25479;SDS011;13393;49.378;8.686;2023-12-04T14:01:46;15.13;;;9.30;;
25479;SDS011;13393;49.378;8.686;2023-12-04T14:04:13;12.32;;;7.95;;
25479;SDS011;13393;49.378;8.686;2023-12-04T14:06:39;10.30;;;7.28;;
25479;SDS011;13393;49.378;8.686;2023-12-04T14:09:06;10.63;;;7.40;;
25479;SDS011;13393;49.378;8.686;2023-12-04T14:11:35;10.85;;;6.60;;
25479;SDS011;13393;49.378;8.686;2023-12-04T14:14:02;10.55;;;7.50;;
25479;SDS011;13393;49.378;8.686;2023-12-04T14:16:29;11.57;;;7.43;;
25479;SDS011;13393;49.378;8.686;2023-12-04T14:18:58;10.07;;;7.53;;
25479;SDS011;13393;49.378;8.686;2023-12-04T14:21:24;9.75;;;6.47;;
25479;SDS011;13393;49.378;8.686;2023-12-04T14:23:51;12.20;;;7.22;;
25479;SDS011;13393;49.378;8.686;2023-12-04T14:26:18;11.40;;;7.75;;
25479;SDS011;13393;49.378;8.686;2023-12-04T14:28:44;11.57;;;7.63;;
25479;SDS011;13393;49.378;8.686;2023-12-04T14:31:11;10.90;;;7.63;;
25479;SDS011;13393;49.378;8.686;2023-12-04T14:33:38;12.88;;;7.30;;
25479;SDS011;13393;49.378;8.686;2023-12-04T14:36:07;10.27;;;7.30;;
25479;SDS011;13393;49.378;8.686;2023-12-04T14:38:33;10.98;;;7.88;;
25479;SDS011;13393;49.378;8.686;2023-12-04T14:41:00;14.35;;;7.88;;